Time;durP1;ratioP1;P1;durP2;ratioP2;P2;SDS_P1;SDS_P2;PMS_P1;PMS_P2;Temp;Humidity;BMP_temperature;BMP_pressure;BME280_temperature;BME280_humidity;BME280_pressure;Samples;Min_cycle;Max_cycle;Signal;HPM_P1;HPM_P2
2021/11/28 00:01:21;;;;;;;18.63;13.88;;;2.20;99.90;;;;;;5075006;28;20223;-67
2021/11/28 00:03:47;;;;;;;19.77;12.88;;;2.20;99.90;;;;;;5075073;28;20203;-67
2021/11/28 00:06:20;;;;;;;15.02;11.10;;;2.20;99.90;;;;;;5075123;28;20196;-68
2021/11/28 00:11:34;;;;;;;14.88;10.95;;;2.20;99.90;;;;;;5074480;28;20195;-66
2021/11/28 00:16:29;;;;;;;12.95;11.02;;;2.20;99.90;;;;;;5074903;28;20230;-67
2021/11/28 00:18:55;;;;;;;11.57;10.45;;;2.20;99.90;;;;;;5074620;28;20208;-67
2021/11/28 00:21:22;;;;;;;13.35;11.45;;;2.20;99.90;;;;;;5074687;28;20270;-69
2021/11/28 00:23:48;;;;;;;14.70;11.13;;;2.20;99.90;;;;;;5074610;28;20207;-66
2021/11/28 00:26:16;;;;;;;14.20;10.82;;;2.20;99.90;;;;;;5074242;28;20667;-67
2021/11/28 00:28:43;;;;;;;12.10;10.73;;;2.20;99.90;;;;;;5074468;28;20537;-69
2021/11/28 00:31:10;;;;;;;13.45;11.10;;;2.20;99.90;;;;;;5074609;28;20200;-67
2021/11/28 00:33:37;;;;;;;12.30;10.50;;;2.20;99.90;;;;;;5074442;28;20265;-67
2021/11/28 00:36:04;;;;;;;15.80;11.85;;;2.20;99.90;;;;;;5074372;28;20208;-67
2021/11/28 00:38:31;;;;;;;16.67;10.95;;;2.20;99.90;;;;;;5074399;28;20632;-67
2021/11/28 00:40:57;;;;;;;18.52;13.55;;;2.20;99.90;;;;;;5074153;28;20220;-67
2021/11/28 00:43:24;;;;;;;18.48;13.55;;;2.20;99.90;;;;;;5074079;28;20261;-66
2021/11/28 00:45:50;;;;;;;14.65;13.15;;;2.20;99.90;;;;;;5073371;28;20200;-67
2021/11/28 00:48:17;;;;;;;14.55;10.68;;;2.20;99.90;;;;;;5074118;28;20269;-67
2021/11/28 00:50:48;;;;;;;17.92;11.23;;;2.20;99.90;;;;;;5073750;28;20224;-67
2021/11/28 00:53:16;;;;;;;15.07;11.88;;;2.20;99.90;;;;;;5074183;28;20257;-66
2021/11/28 00:55:43;;;;;;;15.55;12.25;;;2.20;99.90;;;;;;5073635;28;20257;-66
2021/11/28 00:58:10;;;;;;;17.83;11.75;;;2.20;99.90;;;;;;5074013;28;20200;-66
2021/11/28 01:00:38;;;;;;;13.45;11.60;;;2.20;99.90;;;;;;5073785;28;20617;-68
2021/11/28 01:03:06;;;;;;;14.77;11.13;;;2.20;99.90;;;;;;5073404;28;20210;-67
2021/11/28 01:05:33;;;;;;;11.55;10.35;;;2.10;99.90;;;;;;5074007;28;20196;-67
2021/11/28 01:07:59;;;;;;;11.70;10.38;;;2.20;99.90;;;;;;5072588;28;20200;-67
2021/11/28 01:10:26;;;;;;;14.50;11.40;;;2.10;99.90;;;;;;5073431;28;20624;-67
2021/11/28 01:12:52;;;;;;;11.48;10.25;;;2.10;99.90;;;;;;5073821;28;20207;-67
2021/11/28 01:15:19;;;;;;;12.75;11.40;;;2.10;99.90;;;;;;5073610;28;20215;-66
2021/11/28 01:17:45;;;;;;;13.55;10.57;;;2.20;99.90;;;;;;5073197;28;20211;-66
2021/11/28 01:20:12;;;;;;;11.40;10.20;;;2.20;99.90;;;;;;5073644;28;20207;-66
2021/11/28 01:22:39;;;;;;;12.48;10.75;;;2.20;99.90;;;;;;5072010;28;20616;-66
2021/11/28 01:25:07;;;;;;;14.90;10.38;;;2.20;99.90;;;;;;5073538;28;20200;-66
2021/11/28 01:27:34;;;;;;;12.48;10.48;;;2.10;99.90;;;;;;5073126;28;20202;-66
2021/11/28 01:30:00;;;;;;;18.10;10.30;;;2.20;99.90;;;;;;5073433;28;20206;-66
2021/11/28 01:32:27;;;;;;;15.35;11.65;;;2.20;99.90;;;;;;5073403;28;20204;-67
2021/11/28 01:34:53;;;;;;;20.30;12.18;;;2.20;99.90;;;;;;5073083;28;20210;-67
2021/11/28 01:37:20;;;;;;;12.27;11.07;;;2.20;99.90;;;;;;5073024;28;20546;-67
2021/11/28 01:39:47;;;;;;;14.25;11.10;;;2.20;99.90;;;;;;5073249;28;20208;-67
2021/11/28 01:42:14;;;;;;;17.30;11.07;;;2.20;99.90;;;;;;5073148;28;20297;-67
2021/11/28 01:44:40;;;;;;;13.10;11.02;;;2.20;99.90;;;;;;5073617;28;20196;-67
2021/11/28 01:47:07;;;;;;;15.15;12.70;;;2.20;99.90;;;;;;5073484;28;20249;-67
2021/11/28 01:49:33;;;;;;;19.65;11.70;;;2.20;99.90;;;;;;5071429;28;20703;-67
2021/11/28 01:52:00;;;;;;;16.77;12.27;;;2.20;99.90;;;;;;5073043;28;20264;-67
2021/11/28 01:54:27;;;;;;;16.58;11.85;;;2.20;99.90;;;;;;5071676;28;20219;-67
2021/11/28 01:56:53;;;;;;;15.10;12.32;;;2.20;99.90;;;;;;5076558;28;20207;-67
2021/11/28 01:59:20;;;;;;;13.52;12.13;;;2.20;99.90;;;;;;5080054;28;20207;-67
2021/11/28 02:01:47;;;;;;;16.58;12.55;;;2.20;99.90;;;;;;5079531;28;20219;-67
2021/11/28 02:04:18;;;;;;;15.70;12.20;;;2.20;99.90;;;;;;5079636;28;20192;-67
2021/11/28 02:06:46;;;;;;;18.98;13.50;;;2.20;99.90;;;;;;5079842;28;20184;-66
2021/11/28 02:09:14;;;;;;;14.63;12.60;;;2.20;99.90;;;;;;5079710;28;20208;-66
2021/11/28 02:11:45;;;;;;;17.27;13.07;;;2.20;99.90;;;;;;5079775;28;20200;-66
2021/11/28 02:14:12;;;;;;;14.95;13.45;;;2.20;99.90;;;;;;5079951;28;20204;-66
2021/11/28 02:16:39;;;;;;;22.05;14.80;;;2.20;99.90;;;;;;5079312;28;20222;-66
2021/11/28 02:19:05;;;;;;;19.05;14.25;;;2.20;99.90;;;;;;5079539;28;20269;-66
2021/11/28 02:21:32;;;;;;;17.15;13.93;;;2.20;99.90;;;;;;5079332;28;20220;-66
2021/11/28 02:23:59;;;;;;;14.65;13.15;;;2.20;99.90;;;;;;5079296;28;20636;-67
2021/11/28 02:26:27;;;;;;;17.52;13.35;;;2.10;99.90;;;;;;5079388;28;20237;-67
2021/11/28 02:28:54;;;;;;;17.73;13.45;;;2.10;99.90;;;;;;5079742;28;20200;-67
2021/11/28 02:31:21;;;;;;;18.02;12.88;;;2.20;99.90;;;;;;5077997;28;20196;-67
2021/11/28 02:33:47;;;;;;;17.48;13.10;;;2.20;99.90;;;;;;5079514;28;20200;-67
2021/11/28 02:36:14;;;;;;;18.25;13.57;;;2.20;99.90;;;;;;5079215;28;20609;-67
2021/11/28 02:38:41;;;;;;;17.13;12.70;;;2.20;99.90;;;;;;5079717;28;20203;-67
2021/11/28 02:41:08;;;;;;;16.58;13.38;;;2.20;99.90;;;;;;5079420;28;20242;-66
2021/11/28 02:43:34;;;;;;;19.95;14.20;;;2.20;99.90;;;;;;5079207;28;20196;-67
2021/11/28 02:46:07;;;;;;;20.70;14.10;;;2.20;99.90;;;;;;5079268;28;20551;-66
2021/11/28 02:48:35;;;;;;;18.50;13.70;;;2.20;99.90;;;;;;5079131;28;20295;-67
2021/11/28 02:51:03;;;;;;;17.55;14.23;;;2.20;99.90;;;;;;5079110;28;20236;-66
2021/11/28 02:53:30;;;;;;;17.50;13.82;;;2.10;99.90;;;;;;5079499;28;20220;-67
2021/11/28 02:56:01;;;;;;;14.68;13.15;;;2.10;99.90;;;;;;5078991;28;20594;-67
2021/11/28 02:58:28;;;;;;;14.70;13.20;;;2.10;99.90;;;;;;5079198;28;20283;-67
2021/11/28 03:01:02;;;;;;;17.83;12.65;;;2.10;99.90;;;;;;5079492;28;20215;-67
2021/11/28 03:03:29;;;;;;;19.17;13.43;;;2.10;99.90;;;;;;5080026;28;20184;-67
2021/11/28 03:05:55;;;;;;;14.85;12.88;;;2.10;99.90;;;;;;5079065;28;20200;-67
2021/11/28 03:08:22;;;;;;;17.50;12.18;;;2.10;99.90;;;;;;5076934;28;20204;-67
2021/11/28 03:10:51;;;;;;;18.40;12.90;;;2.10;99.90;;;;;;5076278;28;20248;-67
2021/11/28 03:13:25;;;;;;;16.05;12.80;;;2.10;99.90;;;;;;5076023;28;20192;-67
2021/11/28 03:15:55;;;;;;;30.05;18.23;;;2.10;99.90;;;;;;5075920;28;20200;-67
2021/11/28 03:18:23;;;;;;;20.75;15.85;;;2.10;99.90;;;;;;5076090;28;20692;-67
2021/11/28 03:20:52;;;;;;;18.75;12.70;;;2.10;99.90;;;;;;5075966;28;20655;-67
2021/11/28 03:23:26;;;;;;;15.02;12.65;;;2.10;99.90;;;;;;5076046;28;20192;-67
2021/11/28 03:26:10;;;;;;;15.55;12.50;;;2.10;99.90;;;;;;5076069;28;20697;-67
2021/11/28 03:28:39;;;;;;;13.30;11.88;;;2.10;99.90;;;;;;5075761;28;20235;-67
2021/11/28 03:31:06;;;;;;;13.38;11.70;;;2.10;99.90;;;;;;5076071;28;20559;-67
2021/11/28 03:33:33;;;;;;;16.58;11.45;;;2.20;99.90;;;;;;5074314;28;20583;-66
2021/11/28 03:35:59;;;;;;;15.18;11.63;;;2.20;99.90;;;;;;5075883;28;20212;-66
2021/11/28 03:38:26;;;;;;;13.77;12.25;;;2.20;99.90;;;;;;5075546;28;20770;-67
2021/11/28 03:40:53;;;;;;;13.60;11.15;;;2.10;99.90;;;;;;5076014;28;20663;-66
2021/11/28 03:43:19;;;;;;;14.20;11.02;;;2.10;99.90;;;;;;5075352;28;20204;-67
2021/11/28 03:45:45;;;;;;;14.35;12.18;;;2.10;99.90;;;;;;5075644;28;20204;-66
2021/11/28 03:48:12;;;;;;;13.32;10.98;;;2.00;99.90;;;;;;5075361;28;20550;-67
2021/11/28 03:50:39;;;;;;;11.10;9.88;;;2.00;99.90;;;;;;5075183;28;20422;-67
2021/11/28 03:53:05;;;;;;;15.75;11.35;;;2.00;99.90;;;;;;5075262;28;20227;-66
2021/11/28 03:55:32;;;;;;;11.88;10.68;;;2.00;99.90;;;;;;5075369;28;20196;-67
2021/11/28 03:57:58;;;;;;;12.07;10.50;;;2.10;99.90;;;;;;5075006;28;20254;-65
2021/11/28 04:00:25;;;;;;;12.70;11.32;;;2.20;99.90;;;;;;5074872;28;20544;-65
2021/11/28 04:02:51;;;;;;;14.02;10.80;;;2.20;99.90;;;;;;5073906;28;20565;-66
2021/11/28 04:05:18;;;;;;;13.40;10.50;;;2.20;99.90;;;;;;5074783;28;20659;-65
2021/11/28 04:07:44;;;;;;;15.48;11.98;;;2.20;99.90;;;;;;5075049;28;20196;-66
2021/11/28 04:10:11;;;;;;;16.10;10.70;;;2.20;99.90;;;;;;5074509;28;20199;-67
2021/11/28 04:12:37;;;;;;;12.68;10.98;;;2.20;99.90;;;;;;5074949;28;20264;-66
2021/11/28 04:15:05;;;;;;;13.95;11.40;;;2.20;99.90;;;;;;5073507;28;20206;-66
2021/11/28 04:17:32;;;;;;;13.07;10.30;;;2.20;99.90;;;;;;5073497;28;20204;-66
2021/11/28 04:19:59;;;;;;;14.57;10.32;;;2.20;99.90;;;;;;5073770;28;20228;-66
2021/11/28 04:22:26;;;;;;;19.90;11.65;;;2.20;99.90;;;;;;5074442;28;20711;-66
2021/11/28 04:24:54;;;;;;;16.20;11.15;;;2.20;99.90;;;;;;5074472;28;20575;-66
2021/11/28 04:27:20;;;;;;;14.43;11.80;;;2.10;99.90;;;;;;5074634;28;20655;-66
2021/11/28 04:29:47;;;;;;;11.73;10.40;;;2.10;99.90;;;;;;5074839;28;20196;-70
2021/11/28 04:32:13;;;;;;;14.50;11.07;;;2.10;99.90;;;;;;5072899;28;20564;-66
2021/11/28 04:34:40;;;;;;;11.80;10.60;;;2.10;99.90;;;;;;5074671;28;20207;-66
2021/11/28 04:37:07;;;;;;;17.73;11.77;;;2.10;99.90;;;;;;5074563;28;20208;-66
2021/11/28 04:39:33;;;;;;;12.85;11.55;;;2.20;99.90;;;;;;5073257;28;20212;-66
2021/11/28 04:42:00;;;;;;;13.00;11.25;;;2.20;99.90;;;;;;5074064;28;20591;-66
2021/11/28 04:44:26;;;;;;;17.95;11.45;;;2.20;99.90;;;;;;5074694;28;20602;-66
2021/11/28 04:46:53;;;;;;;14.02;10.77;;;2.20;99.90;;;;;;5074104;28;20229;-67
2021/11/28 04:49:19;;;;;;;13.95;10.93;;;2.20;99.90;;;;;;5074107;28;20293;-67
2021/11/28 04:51:46;;;;;;;14.35;10.80;;;2.10;99.90;;;;;;5074361;28;20181;-67
2021/11/28 04:54:13;;;;;;;17.30;12.32;;;2.10;99.90;;;;;;5073906;28;20699;-66
2021/11/28 04:56:39;;;;;;;14.50;11.75;;;2.00;99.90;;;;;;5074548;28;20211;-68
2021/11/28 04:59:06;;;;;;;14.30;11.55;;;2.00;99.90;;;;;;5074361;28;20632;-67
2021/11/28 05:01:32;;;;;;;13.25;11.65;;;1.90;99.90;;;;;;5074275;28;20216;-66
2021/11/28 05:03:59;;;;;;;13.75;11.60;;;1.90;99.90;;;;;;5074756;28;20206;-69
2021/11/28 05:06:26;;;;;;;13.05;10.95;;;1.90;99.90;;;;;;5074220;28;20196;-67
2021/11/28 05:08:52;;;;;;;16.15;11.98;;;2.00;99.90;;;;;;5074086;28;20705;-67
2021/11/28 05:11:19;;;;;;;194.50;133.73;;;1.90;99.90;;;;;;5073881;28;20598;-66
2021/11/28 05:13:45;;;;;;;20.88;15.55;;;1.90;99.90;;;;;;5074185;28;20204;-68
2021/11/28 05:16:12;;;;;;;20.58;16.45;;;1.90;99.90;;;;;;5073863;28;20199;-66
2021/11/28 05:18:38;;;;;;;21.38;17.10;;;1.90;99.90;;;;;;5073472;28;20196;-67
2021/11/28 05:21:05;;;;;;;19.45;13.95;;;1.90;99.90;;;;;;5073671;28;20563;-67
2021/11/28 05:23:31;;;;;;;14.50;11.82;;;1.90;99.90;;;;;;5073973;28;20209;-67
2021/11/28 05:25:58;;;;;;;15.05;11.07;;;1.90;99.90;;;;;;5073958;28;20568;-67
2021/11/28 05:28:24;;;;;;;12.35;10.40;;;1.90;99.90;;;;;;5073771;28;20203;-67
2021/11/28 05:30:51;;;;;;;12.43;10.85;;;1.90;99.90;;;;;;5073153;28;20200;-67
2021/11/28 05:33:17;;;;;;;11.55;9.80;;;1.90;99.90;;;;;;5072298;28;20204;-67
2021/11/28 05:35:44;;;;;;;16.17;11.30;;;1.90;99.90;;;;;;5073366;28;20204;-67
2021/11/28 05:38:10;;;;;;;15.27;10.70;;;1.90;99.90;;;;;;5073666;28;20207;-67
2021/11/28 05:40:37;;;;;;;11.40;10.20;;;1.90;99.90;;;;;;5073411;28;20203;-67
2021/11/28 05:43:03;;;;;;;13.50;11.25;;;1.90;99.90;;;;;;5073727;28;20216;-67
2021/11/28 05:45:30;;;;;;;11.52;10.32;;;1.90;99.90;;;;;;5073075;28;20621;-67
2021/11/28 05:47:56;;;;;;;11.30;10.13;;;1.90;99.90;;;;;;5073357;28;20539;-67
2021/11/28 05:50:26;;;;;;;10.35;8.95;;;1.90;99.90;;;;;;5073080;28;20223;-66
2021/11/28 05:52:53;;;;;;;10.68;8.52;;;1.90;99.90;;;;;;5073847;28;20662;-66
2021/11/28 05:55:20;;;;;;;12.55;9.60;;;1.90;99.90;;;;;;5073795;28;20207;-66
2021/11/28 05:57:47;;;;;;;10.60;9.45;;;1.90;99.90;;;;;;5073696;28;20208;-66
2021/11/28 06:00:17;;;;;;;12.13;9.15;;;1.90;99.90;;;;;;5073548;28;20204;-66
2021/11/28 06:02:44;;;;;;;10.80;9.65;;;1.90;99.90;;;;;;5073222;28;20603;-66
2021/11/28 06:05:11;;;;;;;11.23;9.32;;;1.90;99.90;;;;;;5073584;28;20200;-66
2021/11/28 06:07:38;;;;;;;11.95;8.75;;;1.80;99.90;;;;;;5072998;28;20265;-66
2021/11/28 06:10:05;;;;;;;9.25;7.97;;;1.80;99.90;;;;;;5073031;28;20264;-66
2021/11/28 06:12:32;;;;;;;10.57;8.93;;;1.80;99.90;;;;;;5073311;28;20195;-66
2021/11/28 06:14:58;;;;;;;12.93;9.48;;;1.70;99.90;;;;;;5073457;28;20199;-66
2021/11/28 06:17:25;;;;;;;11.93;10.45;;;1.70;99.90;;;;;;5073224;28;20573;-66
2021/11/28 06:19:51;;;;;;;13.30;10.27;;;1.60;99.90;;;;;;5073362;28;20241;-67
2021/11/28 06:22:17;;;;;;;11.35;9.48;;;1.60;99.90;;;;;;5073145;28;20219;-67
2021/11/28 06:24:44;;;;;;;13.63;9.55;;;1.50;99.90;;;;;;5073101;28;20196;-67
2021/11/28 06:27:11;;;;;;;13.05;10.23;;;1.40;99.90;;;;;;5071924;28;20198;-67
2021/11/28 06:29:39;;;;;;;17.38;11.35;;;1.30;99.90;;;;;;5071710;28;20206;-67
2021/11/28 06:32:05;;;;;;;20.38;11.18;;;1.30;99.90;;;;;;5071404;28;20204;-67
2021/11/28 06:34:32;;;;;;;15.60;10.38;;;1.30;99.90;;;;;;5072839;28;20199;-67
2021/11/28 06:36:59;;;;;;;14.98;11.55;;;1.30;99.90;;;;;;5072752;28;20829;-67
2021/11/28 06:39:25;;;;;;;14.35;11.07;;;1.20;99.90;;;;;;5072970;28;20544;-67
2021/11/28 06:41:52;;;;;;;15.05;11.48;;;1.20;99.90;;;;;;5072723;28;20223;-67
2021/11/28 06:44:18;;;;;;;16.33;10.65;;;1.20;99.90;;;;;;5075099;28;20253;-66
2021/11/28 06:46:45;;;;;;;16.08;12.10;;;1.20;99.90;;;;;;5077026;28;20199;-66
2021/11/28 06:49:12;;;;;;;12.60;11.05;;;1.00;99.90;;;;;;5075206;28;20649;-67
2021/11/28 06:51:38;;;;;;;14.98;12.00;;;1.00;99.90;;;;;;5077022;28;20200;-65
2021/11/28 06:54:05;;;;;;;13.98;12.00;;;0.80;99.90;;;;;;5076866;28;20220;-66
2021/11/28 06:56:32;;;;;;;17.35;11.60;;;0.90;99.90;;;;;;5076765;28;20196;-66
2021/11/28 06:58:58;;;;;;;15.98;11.15;;;0.90;99.90;;;;;;5076439;28;20200;-67
2021/11/28 07:01:24;;;;;;;13.50;12.07;;;0.80;99.90;;;;;;5076239;28;20208;-67
2021/11/28 07:03:51;;;;;;;17.67;12.55;;;0.80;99.90;;;;;;5075392;28;20200;-67
2021/11/28 07:06:17;;;;;;;16.85;13.52;;;0.80;99.90;;;;;;5077048;28;20196;-67
2021/11/28 07:08:44;;;;;;;21.13;13.73;;;0.80;99.90;;;;;;5077080;28;20208;-67
2021/11/28 07:11:10;;;;;;;21.00;14.18;;;0.80;99.90;;;;;;5076406;28;20659;-67
2021/11/28 07:13:37;;;;;;;21.20;13.93;;;0.90;99.90;;;;;;5075211;28;20211;-67
2021/11/28 07:16:04;;;;;;;17.75;13.13;;;0.90;99.90;;;;;;5076366;28;20214;-67
2021/11/28 07:18:30;;;;;;;22.65;14.48;;;0.90;99.90;;;;;;5074674;28;20199;-67
2021/11/28 07:20:57;;;;;;;16.13;13.02;;;1.00;99.90;;;;;;5076323;28;20204;-67
2021/11/28 07:23:23;;;;;;;17.63;14.30;;;1.00;99.90;;;;;;5076149;28;20626;-67
2021/11/28 07:25:50;;;;;;;17.80;14.50;;;1.00;99.90;;;;;;5076355;28;20623;-67
2021/11/28 07:28:16;;;;;;;27.73;17.58;;;1.00;99.90;;;;;;5076288;28;20199;-67
2021/11/28 07:30:48;;;;;;;31.25;19.10;;;0.90;99.90;;;;;;5075922;28;20678;-66
2021/11/28 07:33:15;;;;;;;21.15;15.93;;;0.90;99.90;;;;;;5076026;28;20619;-67
2021/11/28 07:35:41;;;;;;;20.92;17.23;;;0.90;99.90;;;;;;5076224;28;20204;-66
2021/11/28 07:38:07;;;;;;;22.92;17.77;;;0.90;99.90;;;;;;5076345;28;20200;-66
2021/11/28 07:40:34;;;;;;;21.80;17.10;;;0.90;99.90;;;;;;5057873;28;20542;-68
2021/11/28 07:43:00;;;;;;;17.77;15.50;;;0.90;99.90;;;;;;5075796;28;20222;-67
2021/11/28 07:45:27;;;;;;;22.02;14.00;;;0.80;99.90;;;;;;5075666;28;20196;-65
2021/11/28 07:47:53;;;;;;;20.58;14.15;;;0.90;99.90;;;;;;5075246;28;20223;-66
2021/11/28 07:50:20;;;;;;;23.23;14.90;;;0.90;99.90;;;;;;5075053;28;20561;-67
2021/11/28 07:52:47;;;;;;;21.17;15.15;;;0.90;99.90;;;;;;5075544;28;20207;-66
2021/11/28 07:55:14;;;;;;;22.67;15.75;;;0.90;99.90;;;;;;5075307;28;20196;-67
2021/11/28 07:57:41;;;;;;;26.17;18.63;;;1.00;99.90;;;;;;5075255;28;20200;-67
2021/11/28 08:00:07;;;;;;;20.13;17.20;;;1.00;99.90;;;;;;5075425;28;20206;-67
2021/11/28 08:02:35;;;;;;;21.30;16.38;;;1.00;99.90;;;;;;5075017;28;20216;-67
2021/11/28 08:05:03;;;;;;;24.30;16.92;;;1.00;99.90;;;;;;5075274;28;20725;-67
2021/11/28 08:07:30;;;;;;;20.10;17.05;;;1.10;99.90;;;;;;5075102;28;20678;-67
2021/11/28 08:09:57;;;;;;;20.50;15.98;;;1.20;99.90;;;;;;5074138;28;20200;-67
2021/11/28 08:12:24;;;;;;;18.77;15.77;;;1.30;99.90;;;;;;5073582;28;20203;-67
2021/11/28 08:14:50;;;;;;;18.60;15.75;;;1.40;99.90;;;;;;5075447;28;20204;-67
2021/11/28 08:17:17;;;;;;;18.00;15.45;;;1.50;99.90;;;;;;5075199;28;20205;-67
2021/11/28 08:19:44;;;;;;;22.83;15.05;;;1.50;99.90;;;;;;5074727;28;20204;-67
2021/11/28 08:22:10;;;;;;;21.80;16.35;;;1.60;99.90;;;;;;5074832;28;20218;-67
2021/11/28 08:24:37;;;;;;;17.80;15.93;;;1.60;99.90;;;;;;5074777;28;20648;-67
2021/11/28 08:27:04;;;;;;;15.60;13.20;;;1.70;99.90;;;;;;5073550;28;20200;-67
2021/11/28 08:29:31;;;;;;;17.95;14.27;;;1.70;99.90;;;;;;5074401;28;20655;-66
2021/11/28 08:31:58;;;;;;;20.05;14.88;;;1.80;99.90;;;;;;5074530;28;20573;-68
2021/11/28 08:34:25;;;;;;;18.67;16.50;;;1.90;99.90;;;;;;5074765;28;20204;-68
2021/11/28 08:36:53;;;;;;;20.05;15.98;;;2.00;99.90;;;;;;5075102;28;20253;-68
2021/11/28 08:39:20;;;;;;;18.80;15.65;;;2.10;99.90;;;;;;5074731;28;20200;-67
2021/11/28 08:41:46;;;;;;;18.05;14.68;;;2.10;99.90;;;;;;5074464;28;20196;-67
2021/11/28 08:44:13;;;;;;;16.80;14.80;;;2.10;99.90;;;;;;5073503;28;20211;-67
2021/11/28 08:46:40;;;;;;;16.20;13.43;;;2.20;99.90;;;;;;5074601;28;20602;-66
2021/11/28 08:49:06;;;;;;;24.60;14.40;;;2.20;99.90;;;;;;5073860;28;20210;-68
2021/11/28 08:51:35;;;;;;;16.10;12.77;;;2.20;99.90;;;;;;5073164;28;20176;-67
2021/11/28 08:54:01;;;;;;;14.93;12.00;;;2.20;99.90;;;;;;5073908;28;20228;-68
2021/11/28 08:56:28;;;;;;;25.67;13.38;;;2.20;99.90;;;;;;5074267;28;20192;-67
2021/11/28 08:58:55;;;;;;;14.23;12.77;;;2.20;99.90;;;;;;5074124;28;20208;-67
2021/11/28 09:01:21;;;;;;;16.80;13.93;;;2.30;99.90;;;;;;5074270;28;20199;-67
2021/11/28 09:03:47;;;;;;;17.45;12.20;;;2.30;99.90;;;;;;5074382;28;20219;-67
2021/11/28 09:06:14;;;;;;;13.68;11.85;;;2.40;99.90;;;;;;5073673;28;20200;-67
2021/11/28 09:08:41;;;;;;;14.85;12.93;;;2.50;99.90;;;;;;5056557;28;20253;-67
2021/11/28 09:11:08;;;;;;;24.42;17.05;;;2.40;99.90;;;;;;5074204;28;20554;-67
2021/11/28 09:13:36;;;;;;;22.73;14.82;;;2.40;99.90;;;;;;5073280;28;20204;-67
2021/11/28 09:16:03;;;;;;;16.10;13.80;;;2.40;99.90;;;;;;5073987;28;20211;-67
2021/11/28 09:18:38;;;;;;;19.35;13.73;;;2.50;99.90;;;;;;5073817;28;20295;-67
2021/11/28 09:21:04;;;;;;;16.63;14.82;;;2.60;99.90;;;;;;5073823;28;20640;-67
2021/11/28 09:26:16;;;;;;;18.05;15.13;;;2.60;99.90;;;;;;5073613;28;20570;-67
2021/11/28 09:28:43;;;;;;;16.33;13.77;;;2.60;99.90;;;;;;5073568;28;20602;-68
2021/11/28 09:31:10;;;;;;;14.27;11.85;;;2.60;99.90;;;;;;5073494;28;20208;-68
2021/11/28 09:33:41;;;;;;;16.05;11.60;;;2.70;99.90;;;;;;5073063;28;20215;-68
2021/11/28 09:36:10;;;;;;;17.38;12.38;;;2.70;99.90;;;;;;5073539;28;20667;-67
2021/11/28 09:38:36;;;;;;;16.75;12.60;;;2.80;99.90;;;;;;5073251;28;20200;-68
2021/11/28 09:41:07;;;;;;;18.02;11.98;;;2.90;99.90;;;;;;5073478;28;20659;-68
2021/11/28 09:43:36;;;;;;;12.82;10.73;;;2.90;99.90;;;;;;5073139;28;20208;-67
2021/11/28 09:46:05;;;;;;;13.27;9.93;;;2.90;99.90;;;;;;5073301;28;20200;-66
2021/11/28 09:48:34;;;;;;;11.63;10.55;;;2.90;99.90;;;;;;5073692;28;20192;-67
2021/11/28 09:51:05;;;;;;;11.40;10.25;;;2.90;99.90;;;;;;5073325;28;20220;-67
2021/11/28 09:53:34;;;;;;;17.90;12.48;;;2.90;99.90;;;;;;5073409;28;20224;-68
2021/11/28 09:56:02;;;;;;;14.98;9.52;;;2.90;99.90;;;;;;5073484;28;20572;-66
2021/11/28 09:58:29;;;;;;;13.95;10.50;;;3.00;99.90;;;;;;5073918;28;20196;-67
2021/11/28 10:00:58;;;;;;;14.15;10.80;;;3.00;99.90;;;;;;5073265;28;20207;-67
2021/11/28 10:03:24;;;;;;;11.90;9.98;;;3.10;99.90;;;;;;5072927;28;20220;-68
2021/11/28 10:05:52;;;;;;;12.27;9.75;;;3.20;99.90;;;;;;5073327;28;20210;-68
2021/11/28 10:08:20;;;;;;;15.02;10.35;;;3.20;99.90;;;;;;5073170;28;20196;-68
2021/11/28 10:11:16;;;;;;;11.35;9.07;;;3.30;99.90;;;;;;5073052;28;20199;-67
2021/11/28 10:13:43;;;;;;;15.43;8.82;;;3.40;99.90;;;;;;5062221;28;20199;-68
2021/11/28 10:16:10;;;;;;;11.50;9.25;;;3.40;99.90;;;;;;5073016;28;20203;-67
2021/11/28 10:18:37;;;;;;;10.80;9.73;;;3.60;99.90;;;;;;5076390;28;20237;-67
2021/11/28 10:21:04;;;;;;;13.18;8.32;;;3.50;99.90;;;;;;5077286;28;20217;-67
2021/11/28 10:23:30;;;;;;;10.52;9.48;;;3.50;99.90;;;;;;5075788;28;20219;-67
2021/11/28 10:26:17;;;;;;;10.77;8.43;;;3.60;99.90;;;;;;5076903;28;20249;-67
2021/11/28 10:29:06;;;;;;;9.20;8.20;;;3.50;99.90;;;;;;5076716;28;20626;-67
2021/11/28 10:32:03;;;;;;;15.52;10.18;;;3.70;99.90;;;;;;5076847;28;20200;-67
2021/11/28 10:34:38;;;;;;;11.13;7.68;;;3.70;99.90;;;;;;5068442;28;20213;-67
2021/11/28 10:37:09;;;;;;;7.45;5.95;;;3.70;99.90;;;;;;5077240;28;20669;-68
2021/11/28 10:39:58;;;;;;;7.35;6.00;;;3.90;99.90;;;;;;5077018;28;20199;-68
2021/11/28 10:42:30;;;;;;;8.63;7.70;;;3.90;99.90;;;;;;5076666;28;20572;-68
2021/11/28 10:45:10;;;;;;;9.15;7.60;;;3.80;99.90;;;;;;5076430;28;20273;-68
2021/11/28 10:47:40;;;;;;;9.73;8.68;;;3.70;99.90;;;;;;5076454;28;20196;-67
2021/11/28 10:50:26;;;;;;;11.68;7.88;;;3.70;99.90;;;;;;5076157;28;20706;-68
2021/11/28 10:53:16;;;;;;;9.38;8.38;;;3.70;99.90;;;;;;5076252;28;20241;-67
2021/11/28 10:55:45;;;;;;;11.73;8.43;;;3.60;99.90;;;;;;5076413;28;20265;-68
2021/11/28 10:58:16;;;;;;;9.00;8.20;;;3.60;99.90;;;;;;5076447;28;20208;-68
2021/11/28 11:00:46;;;;;;;9.57;8.18;;;3.70;99.90;;;;;;5076265;28;20569;-68
2021/11/28 11:03:20;;;;;;;12.52;8.57;;;3.70;99.90;;;;;;5076069;28;20238;-68
2021/11/28 11:05:49;;;;;;;11.75;8.75;;;3.70;99.90;;;;;;5076563;28;20609;-68
2021/11/28 11:08:17;;;;;;;10.93;8.45;;;3.80;99.90;;;;;;5076023;28;20200;-67
2021/11/28 11:10:46;;;;;;;10.93;8.00;;;3.90;99.90;;;;;;5074791;28;20283;-67
2021/11/28 11:13:17;;;;;;;9.98;8.52;;;4.10;99.90;;;;;;5076412;28;20719;-68
2021/11/28 11:15:46;;;;;;;8.73;7.60;;;4.20;99.90;;;;;;5075905;28;20204;-67
2021/11/28 11:18:19;;;;;;;9.50;7.68;;;4.30;99.90;;;;;;5076438;28;20208;-67
2021/11/28 11:20:49;;;;;;;7.93;7.05;;;4.50;99.90;;;;;;5076288;28;20207;-68
2021/11/28 11:23:42;;;;;;;7.93;6.75;;;4.40;99.90;;;;;;5074938;28;20227;-68
2021/11/28 11:26:25;;;;;;;9.05;7.53;;;4.30;99.90;;;;;;5075986;28;20689;-68
2021/11/28 11:29:13;;;;;;;7.15;6.43;;;4.30;99.90;;;;;;5073797;28;20191;-68
2021/11/28 11:31:43;;;;;;;9.70;7.05;;;4.30;99.90;;;;;;5075718;28;20234;-67
2021/11/28 11:34:29;;;;;;;9.32;8.40;;;4.30;99.90;;;;;;5075823;28;20267;-67
2021/11/28 11:37:15;;;;;;;10.20;8.65;;;4.50;99.90;;;;;;5076053;28;20206;-66
2021/11/28 11:39:47;;;;;;;8.98;7.40;;;4.50;99.90;;;;;;5075903;28;20234;-67
2021/11/28 11:42:18;;;;;;;14.43;8.90;;;4.50;99.90;;;;;;5074378;28;20215;-66
2021/11/28 11:44:46;;;;;;;8.65;7.25;;;4.30;99.90;;;;;;5075842;28;20216;-67
2021/11/28 11:47:13;;;;;;;7.40;6.68;;;4.30;99.90;;;;;;5075487;28;20685;-68
2021/11/28 11:49:41;;;;;;;10.43;7.03;;;4.30;99.90;;;;;;5075255;28;20246;-68
2021/11/28 11:52:12;;;;;;;8.85;7.65;;;4.50;99.90;;;;;;5075872;28;20260;-67
2021/11/28 11:54:46;;;;;;;15.30;10.90;;;4.30;99.90;;;;;;5075110;28;20223;-67
2021/11/28 11:57:37;;;;;;;11.38;7.95;;;4.40;99.90;;;;;;5072410;28;20211;-68
2021/11/28 12:00:13;;;;;;;14.65;7.88;;;4.40;99.90;;;;;;5059840;28;20274;-68
2021/11/28 12:02:44;;;;;;;8.30;7.00;;;4.40;99.90;;;;;;5075409;28;20548;-66
2021/11/28 12:05:23;;;;;;;7.47;6.50;;;4.40;99.90;;;;;;5075060;28;20569;-68
2021/11/28 12:07:58;;;;;;;8.35;7.30;;;4.20;99.90;;;;;;5074712;28;20208;-67
2021/11/28 12:10:56;;;;;;;18.33;10.93;;;4.10;99.90;;;;;;5075290;28;20267;-67
2021/11/28 12:13:25;;;;;;;13.93;8.70;;;4.20;99.90;;;;;;5075210;28;20187;-67
2021/11/28 12:15:54;;;;;;;12.75;8.40;;;4.20;99.90;;;;;;5074745;28;20210;-68
2021/11/28 12:18:41;;;;;;;8.55;6.88;;;4.20;99.90;;;;;;5075274;28;20204;-67
2021/11/28 12:21:09;;;;;;;7.43;6.60;;;4.20;99.90;;;;;;5075340;28;20195;-68
2021/11/28 12:24:28;;;;;;;9.30;5.72;;;4.20;99.90;;;;;;5074643;28;20719;-67
2021/11/28 12:27:03;;;;;;;9.48;7.07;;;4.10;99.90;;;;;;5071020;28;20199;-68
2021/11/28 12:29:31;;;;;;;7.53;6.13;;;4.10;99.90;;;;;;5074934;28;20169;-69
2021/11/28 12:32:24;;;;;;;9.75;6.93;;;4.20;99.90;;;;;;5074613;28;20176;-67
2021/11/28 12:34:57;;;;;;;8.30;6.97;;;4.10;99.90;;;;;;5074834;28;20200;-68
2021/11/28 12:37:30;;;;;;;9.88;7.45;;;4.10;99.90;;;;;;5074594;28;20242;-68
2021/11/28 12:40:19;;;;;;;9.32;6.15;;;4.30;99.90;;;;;;5074920;28;20180;-67
2021/11/28 12:42:45;;;;;;;6.75;6.05;;;4.40;99.90;;;;;;5074347;28;20623;-67
2021/11/28 12:45:12;;;;;;;12.02;5.97;;;4.50;99.90;;;;;;5074538;28;20184;-67
2021/11/28 12:47:38;;;;;;;7.40;5.68;;;4.40;99.90;;;;;;5073071;28;20230;-67
2021/11/28 12:50:19;;;;;;;10.90;6.75;;;4.30;99.90;;;;;;5074186;28;20702;-67
2021/11/28 12:52:50;;;;;;;7.35;5.18;;;4.30;99.90;;;;;;5074601;28;20188;-67
2021/11/28 12:55:23;;;;;;;5.70;5.07;;;4.20;99.90;;;;;;5072997;28;20692;-66
2021/11/28 12:58:09;;;;;;;6.88;5.60;;;4.30;99.90;;;;;;5074004;28;20176;-67